Time;durP1;ratioP1;P1;durP2;ratioP2;P2;SDS_P1;SDS_P2;PMS_P1;PMS_P2;Temp;Humidity;BMP_temperature;BMP_pressure;BME280_temperature;BME280_humidity;BME280_pressure;Samples;Min_cycle;Max_cycle;Signal;HPM_P1;HPM_P2
2020/12/19 00:00:40;;;;;;;;;;;;;;;;;;5089573;28;25118;-66
2020/12/19 00:03:06;;;;;;;;;;;;;;;;;;5091143;28;25062;-65
2020/12/19 00:05:32;;;;;;;;;;;;;;;;;;5090985;28;25132;-65
2020/12/19 00:07:58;;;;;;;;;;;;;;;;;;5090238;28;25096;-66
2020/12/19 00:10:24;;;;;;;;;;;;;;;;;;5089433;28;25081;-64
2020/12/19 00:12:50;;;;;;;;;;;;;;;;;;5090608;28;25110;-65
2020/12/19 00:15:16;;;;;;;;;;;;;;;;;;5093471;28;25069;-66
2020/12/19 00:17:42;;;;;;;;;;;;;;;;;;5094507;28;25071;-66
2020/12/19 00:20:08;;;;;;;;;;;;;;;;;;5094610;28;25106;-67
2020/12/19 00:22:34;;;;;;;;;;;;;;;;;;5094409;28;25132;-66
2020/12/19 00:24:59;;;;;;;;;;;;;;;;;;5093850;28;25170;-67
2020/12/19 00:27:25;;;;;;;;;;;;;;;;;;5091691;28;25141;-63
2020/12/19 00:29:51;;;;;;;;;;;;;;;;;;5092516;28;25064;-65
2020/12/19 00:32:17;;;;;;;;;;;;;;;;;;5090023;28;25115;-64
2020/12/19 00:34:43;;;;;;;;;;;;;;;;;;5089923;28;25083;-64
2020/12/19 00:37:09;;;;;;;;;;;;;;;;;;5086979;28;25165;-64
2020/12/19 00:39:35;;;;;;;;;;;;;;;;;;5082715;28;25073;-64
2020/12/19 00:42:01;;;;;;;;;;;;;;;;;;5083201;28;25103;-64
2020/12/19 00:44:27;;;;;;;;;;;;;;;;;;5084145;28;25139;-64
2020/12/19 00:46:53;;;;;;;;;;;;;;;;;;5082925;28;25147;-64
2020/12/19 00:49:19;;;;;;;;;;;;;;;;;;5080345;28;25103;-65
2020/12/19 00:51:45;;;;;;;;;;;;;;;;;;5081723;28;25067;-63
2020/12/19 00:54:11;;;;;;;;;;;;;;;;;;5079317;28;25098;-64
2020/12/19 00:56:37;;;;;;;;;;;;;;;;;;5078553;28;25059;-64
2020/12/19 00:59:03;;;;;;;;;;;;;;;;;;5078966;28;25077;-63
2020/12/19 01:01:29;;;;;;;;;;;;;;;;;;5078098;28;25192;-63
2020/12/19 01:03:54;;;;;;;;;;;;;;;;;;5078765;28;25096;-64
2020/12/19 01:06:20;;;;;;;;;;;;;;;;;;5078054;28;25151;-64
2020/12/19 01:08:46;;;;;;;;;;;;;;;;;;5077691;28;25055;-63
2020/12/19 01:11:12;;;;;;;;;;;;;;;;;;5077139;28;25068;-64
2020/12/19 01:13:38;;;;;;;;;;;;;;;;;;5078282;28;25064;-63
2020/12/19 01:16:04;;;;;;;;;;;;;;;;;;5076767;28;25056;-64
2020/12/19 01:18:30;;;;;;;;;;;;;;;;;;5078034;28;25085;-64
2020/12/19 01:20:56;;;;;;;;;;;;;;;;;;5076415;28;25067;-64
2020/12/19 01:23:22;;;;;;;;;;;;;;;;;;5077154;28;25077;-65
2020/12/19 01:25:48;;;;;;;;;;;;;;;;;;5077533;28;25085;-63
2020/12/19 01:28:14;;;;;;;;;;;;;;;;;;5077554;28;25073;-64
2020/12/19 01:30:40;;;;;;;;;;;;;;;;;;5077827;28;25081;-64
2020/12/19 01:33:06;;;;;;;;;;;;;;;;;;5078120;28;25075;-64
2020/12/19 01:35:32;;;;;;;;;;;;;;;;;;5077880;28;25075;-64
2020/12/19 01:37:57;;;;;;;;;;;;;;;;;;5077951;28;25070;-64
2020/12/19 01:40:23;;;;;;;;;;;;;;;;;;5078143;28;25102;-64
2020/12/19 01:42:49;;;;;;;;;;;;;;;;;;5077500;28;25079;-64
2020/12/19 01:45:15;;;;;;;;;;;;;;;;;;5076223;28;25027;-63
2020/12/19 01:47:41;;;;;;;;;;;;;;;;;;5077287;28;25058;-64
2020/12/19 01:50:07;;;;;;;;;;;;;;;;;;5076501;28;25178;-64
2020/12/19 01:52:33;;;;;;;;;;;;;;;;;;5077251;28;25119;-64
2020/12/19 01:55:01;;;;;;;;;;;;;;;;;;5077443;28;25141;-65
2020/12/19 01:57:26;;;;;;;;;;;;;;;;;;5077504;28;25141;-64
2020/12/19 01:59:52;;;;;;;;;;;;;;;;;;5077058;28;25149;-64
2020/12/19 02:02:18;;;;;;;;;;;;;;;;;;5077967;28;25069;-65
2020/12/19 02:04:44;;;;;;;;;;;;;;;;;;5077769;28;25075;-64
2020/12/19 02:07:10;;;;;;;;;;;;;;;;;;5080724;28;25057;-64
2020/12/19 02:09:36;;;;;;;;;;;;;;;;;;5078505;28;25139;-63
2020/12/19 02:12:02;;;;;;;;;;;;;;;;;;5077784;28;25173;-64
2020/12/19 02:14:28;;;;;;;;;;;;;;;;;;5078102;28;25072;-64
2020/12/19 02:16:54;;;;;;;;;;;;;;;;;;5078020;28;25080;-65
2020/12/19 02:19:20;;;;;;;;;;;;;;;;;;5078821;28;25135;-64
2020/12/19 02:21:46;;;;;;;;;;;;;;;;;;5076963;28;25065;-65
2020/12/19 02:24:12;;;;;;;;;;;;;;;;;;5078039;28;25072;-65
2020/12/19 02:26:38;;;;;;;;;;;;;;;;;;5077550;28;25074;-65
2020/12/19 02:29:04;;;;;;;;;;;;;;;;;;5077451;28;25072;-65
2020/12/19 02:31:30;;;;;;;;;;;;;;;;;;5077817;28;25082;-65
2020/12/19 02:33:56;;;;;;;;;;;;;;;;;;5078191;28;25049;-65
2020/12/19 02:36:21;;;;;;;;;;;;;;;;;;5077446;28;25071;-64
2020/12/19 02:38:47;;;;;;;;;;;;;;;;;;5077863;28;25137;-64
2020/12/19 02:41:13;;;;;;;;;;;;;;;;;;5077893;28;25070;-64
2020/12/19 02:43:39;;;;;;;;;;;;;;;;;;5078132;28;25101;-63
2020/12/19 02:46:05;;;;;;;;;;;;;;;;;;5078763;28;25063;-63
2020/12/19 02:48:31;;;;;;;;;;;;;;;;;;5077105;28;25098;-64
2020/12/19 02:50:57;;;;;;;;;;;;;;;;;;5077723;28;25132;-63
2020/12/19 02:53:23;;;;;;;;;;;;;;;;;;5077763;28;24902;-64
2020/12/19 02:55:49;;;;;;;;;;;;;;;;;;5078466;28;25116;-63
2020/12/19 02:58:15;;;;;;;;;;;;;;;;;;5077855;28;25098;-63
2020/12/19 03:00:41;;;;;;;;;;;;;;;;;;5078632;28;25120;-64
2020/12/19 03:03:07;;;;;;;;;;;;;;;;;;5077575;28;25061;-64
2020/12/19 03:05:33;;;;;;;;;;;;;;;;;;5078672;28;25058;-63
2020/12/19 03:07:58;;;;;;;;;;;;;;;;;;5079010;28;25061;-62
2020/12/19 03:10:24;;;;;;;;;;;;;;;;;;5079118;28;25079;-64
2020/12/19 03:12:50;;;;;;;;;;;;;;;;;;5078840;28;25073;-63
2020/12/19 03:15:16;;;;;;;;;;;;;;;;;;5077593;28;25074;-64
2020/12/19 03:17:42;;;;;;;;;;;;;;;;;;5077906;28;20218;-64
2020/12/19 03:20:08;;;;;;;;;;;;;;;;;;5077681;28;25075;-63
2020/12/19 03:22:34;;;;;;;;;;;;;;;;;;5079231;28;25065;-63
2020/12/19 03:25:00;;;;;;;;;;;;;;;;;;5079749;28;25085;-64
2020/12/19 03:27:26;;;;;;;;;;;;;;;;;;5079023;28;25091;-64
2020/12/19 03:29:52;;;;;;;;;;;;;;;;;;5078549;28;25079;-63
2020/12/19 03:32:18;;;;;;;;;;;;;;;;;;5079598;28;25102;-63
2020/12/19 03:34:44;;;;;;;;;;;;;;;;;;5079426;28;25079;-63
2020/12/19 03:37:09;;;;;;;;;;;;;;;;;;5078032;28;25083;-63
2020/12/19 03:39:35;;;;;;;;;;;;;;;;;;5077880;28;25085;-64
2020/12/19 03:42:01;;;;;;;;;;;;;;;;;;5079596;28;25075;-64
2020/12/19 03:44:27;;;;;;;;;;;;;;;;;;5079357;28;25078;-63
2020/12/19 03:46:53;;;;;;;;;;;;;;;;;;5079454;28;25101;-63
2020/12/19 03:49:19;;;;;;;;;;;;;;;;;;5082047;28;20247;-64
2020/12/19 03:51:45;;;;;;;;;;;;;;;;;;5081885;28;25051;-65
2020/12/19 03:54:11;;;;;;;;;;;;;;;;;;5083281;28;25101;-63
2020/12/19 03:56:37;;;;;;;;;;;;;;;;;;5082992;28;25123;-64
2020/12/19 03:59:03;;;;;;;;;;;;;;;;;;5083014;28;25054;-65
2020/12/19 04:01:29;;;;;;;;;;;;;;;;;;5082764;28;25055;-65
2020/12/19 04:03:55;;;;;;;;;;;;;;;;;;5081163;28;25109;-65
2020/12/19 04:06:21;;;;;;;;;;;;;;;;;;5081369;28;25159;-65
2020/12/19 04:08:46;;;;;;;;;;;;;;;;;;5082105;28;25161;-64
2020/12/19 04:11:12;;;;;;;;;;;;;;;;;;5082472;28;25065;-65
2020/12/19 04:13:38;;;;;;;;;;;;;;;;;;5083164;28;20210;-65
2020/12/19 04:16:04;;;;;;;;;;;;;;;;;;5083087;28;25123;-63
2020/12/19 04:18:30;;;;;;;;;;;;;;;;;;5082536;28;25108;-65
2020/12/19 04:20:56;;;;;;;;;;;;;;;;;;5083164;28;25114;-65
2020/12/19 04:23:22;;;;;;;;;;;;;;;;;;5082112;28;20543;-65
2020/12/19 04:25:48;;;;;;;;;;;;;;;;;;5082773;28;25125;-64
2020/12/19 04:28:14;;;;;;;;;;;;;;;;;;5083368;28;25161;-65
2020/12/19 04:30:40;;;;;;;;;;;;;;;;;;5083257;28;25115;-64
2020/12/19 04:33:06;;;;;;;;;;;;;;;;;;5082423;28;25084;-64
2020/12/19 04:35:32;;;;;;;;;;;;;;;;;;5082528;28;25054;-64
2020/12/19 04:37:58;;;;;;;;;;;;;;;;;;5082588;28;25075;-63
2020/12/19 04:40:24;;;;;;;;;;;;;;;;;;5082719;28;20202;-65
2020/12/19 04:42:49;;;;;;;;;;;;;;;;;;5082480;28;25177;-64
2020/12/19 04:45:15;;;;;;;;;;;;;;;;;;5082842;28;25125;-65
2020/12/19 04:47:41;;;;;;;;;;;;;;;;;;5083121;28;25062;-64
2020/12/19 04:50:07;;;;;;;;;;;;;;;;;;5082818;28;25098;-64
2020/12/19 04:52:33;;;;;;;;;;;;;;;;;;5082437;28;25114;-64
2020/12/19 04:54:59;;;;;;;;;;;;;;;;;;5082386;28;25080;-65
2020/12/19 04:57:25;;;;;;;;;;;;;;;;;;5082771;28;25094;-64
2020/12/19 04:59:51;;;;;;;;;;;;;;;;;;5080707;28;25064;-64
2020/12/19 05:02:17;;;;;;;;;;;;;;;;;;5082647;28;25134;-64
2020/12/19 05:04:43;;;;;;;;;;;;;;;;;;5082757;28;25073;-64
2020/12/19 05:07:09;;;;;;;;;;;;;;;;;;5082977;28;25057;-64
2020/12/19 05:09:35;;;;;;;;;;;;;;;;;;5082446;28;25146;-65
2020/12/19 05:12:01;;;;;;;;;;;;;;;;;;5080806;28;20217;-64
2020/12/19 05:14:27;;;;;;;;;;;;;;;;;;5080679;28;25059;-64
2020/12/19 05:16:53;;;;;;;;;;;;;;;;;;5078742;28;28065;-64
2020/12/19 05:19:19;;;;;;;;;;;;;;;;;;5080399;28;25058;-64
2020/12/19 05:21:45;;;;;;;;;;;;;;;;;;5080674;28;25197;-65
2020/12/19 05:24:11;;;;;;;;;;;;;;;;;;5080442;28;25145;-65
2020/12/19 05:26:37;;;;;;;;;;;;;;;;;;5080241;28;25059;-64
2020/12/19 05:29:03;;;;;;;;;;;;;;;;;;5082425;28;20185;-64
2020/12/19 05:31:29;;;;;;;;;;;;;;;;;;5082100;28;25163;-64
2020/12/19 05:33:55;;;;;;;;;;;;;;;;;;5081731;28;25175;-64
2020/12/19 05:36:21;;;;;;;;;;;;;;;;;;5082191;28;25144;-64
2020/12/19 05:38:47;;;;;;;;;;;;;;;;;;5082043;28;20263;-63
2020/12/19 05:41:13;;;;;;;;;;;;;;;;;;5081808;28;25068;-63
2020/12/19 05:43:39;;;;;;;;;;;;;;;;;;5082005;28;25156;-66
2020/12/19 05:46:05;;;;;;;;;;;;;;;;;;5081103;28;25142;-63
2020/12/19 05:48:31;;;;;;;;;;;;;;;;;;5082362;28;20743;-63
2020/12/19 05:50:56;;;;;;;;;;;;;;;;;;5082466;28;25087;-63
2020/12/19 05:53:22;;;;;;;;;;;;;;;;;;5082963;28;25091;-65
2020/12/19 05:55:48;;;;;;;;;;;;;;;;;;5082715;28;25049;-65
2020/12/19 05:58:14;;;;;;;;;;;;;;;;;;5082929;28;25074;-64
2020/12/19 06:00:40;;;;;;;;;;;;;;;;;;5082162;28;20218;-66
2020/12/19 06:03:06;;;;;;;;;;;;;;;;;;5081550;28;25095;-64
2020/12/19 06:05:32;;;;;;;;;;;;;;;;;;5081638;28;25074;-64
2020/12/19 06:07:58;;;;;;;;;;;;;;;;;;5082148;28;25095;-65
2020/12/19 06:10:24;;;;;;;;;;;;;;;;;;5081929;28;25122;-66
2020/12/19 06:12:50;;;;;;;;;;;;;;;;;;5079584;28;25059;-66
2020/12/19 06:15:16;;;;;;;;;;;;;;;;;;5081468;28;20635;-65
2020/12/19 06:17:42;;;;;;;;;;;;;;;;;;5081839;28;25147;-65
2020/12/19 06:20:08;;;;;;;;;;;;;;;;;;5081654;28;25054;-65
2020/12/19 06:22:34;;;;;;;;;;;;;;;;;;5081282;28;25157;-65
2020/12/19 06:25:00;;;;;;;;;;;;;;;;;;5081118;28;25081;-65
2020/12/19 06:27:26;;;;;;;;;;;;;;;;;;5080767;28;20235;-64
2020/12/19 06:29:52;;;;;;;;;;;;;;;;;;5081213;28;25127;-63
2020/12/19 06:32:18;;;;;;;;;;;;;;;;;;5079736;28;25095;-64
2020/12/19 06:34:44;;;;;;;;;;;;;;;;;;5080742;28;25067;-63
2020/12/19 06:37:10;;;;;;;;;;;;;;;;;;5080650;28;25068;-63
2020/12/19 06:39:36;;;;;;;;;;;;;;;;;;5080422;28;20206;-62
2020/12/19 06:42:02;;;;;;;;;;;;;;;;;;5078855;28;28111;-63
2020/12/19 06:44:28;;;;;;;;;;;;;;;;;;5080667;28;20213;-64
2020/12/19 06:46:53;;;;;;;;;;;;;;;;;;5079399;28;25095;-64
2020/12/19 06:49:19;;;;;;;;;;;;;;;;;;5080741;28;25146;-64
2020/12/19 06:51:45;;;;;;;;;;;;;;;;;;5080100;28;25108;-64
2020/12/19 06:54:11;;;;;;;;;;;;;;;;;;5080597;28;25061;-63
2020/12/19 06:56:37;;;;;;;;;;;;;;;;;;5080490;28;25058;-65
2020/12/19 06:59:03;;;;;;;;;;;;;;;;;;5080194;28;25057;-63
2020/12/19 07:01:30;;;;;;;;;;;;;;;;;;5078695;28;20594;-63
2020/12/19 07:03:56;;;;;;;;;;;;;;;;;;5079615;28;25069;-63
2020/12/19 07:06:22;;;;;;;;;;;;;;;;;;5079302;28;25050;-63
2020/12/19 07:08:48;;;;;;;;;;;;;;;;;;5079024;28;20226;-63
2020/12/19 07:11:14;;;;;;;;;;;;;;;;;;5080220;28;25154;-63
2020/12/19 07:13:40;;;;;;;;;;;;;;;;;;5079625;28;25185;-64
2020/12/19 07:16:06;;;;;;;;;;;;;;;;;;5080113;28;25073;-64
2020/12/19 07:18:32;;;;;;;;;;;;;;;;;;5079669;28;25065;-64
2020/12/19 07:20:58;;;;;;;;;;;;;;;;;;5079573;28;25171;-64
2020/12/19 07:23:24;;;;;;;;;;;;;;;;;;5079788;28;20301;-64
2020/12/19 07:25:50;;;;;;;;;;;;;;;;;;5079942;28;20298;-64
2020/12/19 07:28:16;;;;;;;;;;;;;;;;;;5078638;28;25078;-63
2020/12/19 07:30:42;;;;;;;;;;;;;;;;;;5078776;28;25065;-64
2020/12/19 07:33:08;;;;;;;;;;;;;;;;;;5079238;28;25123;-63
2020/12/19 07:35:34;;;;;;;;;;;;;;;;;;5079964;28;25059;-64
2020/12/19 07:37:59;;;;;;;;;;;;;;;;;;5079546;28;25064;-63
2020/12/19 07:40:25;;;;;;;;;;;;;;;;;;5079418;28;25080;-64
2020/12/19 07:42:51;;;;;;;;;;;;;;;;;;5078670;28;25082;-64
2020/12/19 07:45:17;;;;;;;;;;;;;;;;;;5079822;28;25130;-64
2020/12/19 07:47:43;;;;;;;;;;;;;;;;;;5079524;28;25059;-63
2020/12/19 07:50:09;;;;;;;;;;;;;;;;;;5079521;28;25098;-64
2020/12/19 07:52:35;;;;;;;;;;;;;;;;;;5079531;28;25107;-64
2020/12/19 07:55:01;;;;;;;;;;;;;;;;;;5079553;28;25144;-62
2020/12/19 07:57:27;;;;;;;;;;;;;;;;;;5078769;28;25127;-65
2020/12/19 07:59:53;;;;;;;;;;;;;;;;;;5079544;28;25155;-65
2020/12/19 08:02:19;;;;;;;;;;;;;;;;;;5080296;28;25071;-64
2020/12/19 08:04:45;;;;;;;;;;;;;;;;;;5079767;28;25071;-65
2020/12/19 08:07:11;;;;;;;;;;;;;;;;;;5079257;28;25147;-64
2020/12/19 08:09:37;;;;;;;;;;;;;;;;;;5079854;28;25074;-65
2020/12/19 08:12:03;;;;;;;;;;;;;;;;;;5079799;28;25129;-65
2020/12/19 08:14:29;;;;;;;;;;;;;;;;;;5079685;28;25073;-65
2020/12/19 08:16:55;;;;;;;;;;;;;;;;;;5079566;28;25148;-65
2020/12/19 08:19:21;;;;;;;;;;;;;;;;;;5080289;28;25061;-66
2020/12/19 08:21:47;;;;;;;;;;;;;;;;;;5080211;28;25108;-65
2020/12/19 08:24:13;;;;;;;;;;;;;;;;;;5080617;28;25144;-64
2020/12/19 08:26:39;;;;;;;;;;;;;;;;;;5081348;28;25065;-64
2020/12/19 08:29:05;;;;;;;;;;;;;;;;;;5082268;28;25077;-63
2020/12/19 08:31:30;;;;;;;;;;;;;;;;;;5081852;28;25050;-64
2020/12/19 08:33:57;;;;;;;;;;;;;;;;;;5080414;28;25092;-63
2020/12/19 08:36:23;;;;;;;;;;;;;;;;;;5083585;28;25073;-64
2020/12/19 08:38:49;;;;;;;;;;;;;;;;;;5083318;28;20217;-62
2020/12/19 08:41:15;;;;;;;;;;;;;;;;;;5083109;28;25094;-63
2020/12/19 08:43:41;;;;;;;;;;;;;;;;;;5084206;28;25105;-64
2020/12/19 08:46:07;;;;;;;;;;;;;;;;;;5084406;28;25101;-64
2020/12/19 08:48:33;;;;;;;;;;;;;;;;;;5084497;28;25070;-63
2020/12/19 08:50:59;;;;;;;;;;;;;;;;;;5084039;28;25127;-64
2020/12/19 08:53:25;;;;;;;;;;;;;;;;;;5082574;28;25071;-64
2020/12/19 08:55:51;;;;;;;;;;;;;;;;;;5083080;28;25084;-63
2020/12/19 08:58:17;;;;;;;;;;;;;;;;;;5083947;28;25074;-64
2020/12/19 09:00:43;;;;;;;;;;;;;;;;;;5083532;28;20229;-65
2020/12/19 09:03:09;;;;;;;;;;;;;;;;;;5082563;28;25057;-66
2020/12/19 09:05:35;;;;;;;;;;;;;;;;;;5084128;28;20458;-65
2020/12/19 09:08:01;;;;;;;;;;;;;;;;;;5084015;28;25092;-64
2020/12/19 09:10:27;;;;;;;;;;;;;;;;;;5084926;28;25075;-63
2020/12/19 09:12:53;;;;;;;;;;;;;;;;;;5083700;28;25098;-65
2020/12/19 09:15:19;;;;;;;;;;;;;;;;;;5084901;28;25062;-64
2020/12/19 09:17:45;;;;;;;;;;;;;;;;;;5085182;28;25062;-65
2020/12/19 09:20:10;;;;;;;;;;;;;;;;;;5085038;28;25075;-67
2020/12/19 09:22:36;;;;;;;;;;;;;;;;;;5083870;28;25159;-72
2020/12/19 09:25:02;;;;;;;;;;;;;;;;;;5086626;28;25112;-68
2020/12/19 09:27:28;;;;;;;;;;;;;;;;;;5085550;28;25082;-71
2020/12/19 09:29:54;;;;;;;;;;;;;;;;;;5086189;28;25085;-72
2020/12/19 09:32:20;;;;;;;;;;;;;;;;;;5086912;28;20366;-71
2020/12/19 09:34:46;;;;;;;;;;;;;;;;;;5084417;28;25061;-69
2020/12/19 09:37:12;;;;;;;;;;;;;;;;;;5084614;28;20196;-69
2020/12/19 09:39:38;;;;;;;;;;;;;;;;;;5087906;28;25144;-70
2020/12/19 09:42:04;;;;;;;;;;;;;;;;;;5088666;28;20278;-70
2020/12/19 09:44:30;;;;;;;;;;;;;;;;;;5086974;28;20618;-66
2020/12/19 09:46:56;;;;;;;;;;;;;;;;;;5085767;28;20223;-66
2020/12/19 09:49:22;;;;;;;;;;;;;;;;;;5084681;28;25535;-68
2020/12/19 09:51:48;;;;;;;;;;;;;;;;;;5084671;28;25154;-66
2020/12/19 09:54:14;;;;;;;;;;;;;;;;;;5083486;28;25067;-68
2020/12/19 09:56:40;;;;;;;;;;;;;;;;;;5085889;28;20704;-68
2020/12/19 09:59:06;;;;;;;;;;;;;;;;;;5086758;28;20675;-66
2020/12/19 10:01:32;;;;;;;;;;;;;;;;;;5087146;28;20207;-68
2020/12/19 10:03:57;;;;;;;;;;;;;;;;;;5085957;28;25066;-68
2020/12/19 10:06:23;;;;;;;;;;;;;;;;;;5085869;28;25081;-66
2020/12/19 10:08:49;;;;;;;;;;;;;;;;;;5088048;28;25068;-66
2020/12/19 10:11:15;;;;;;;;;;;;;;;;;;5085683;28;25104;-67
2020/12/19 10:13:41;;;;;;;;;;;;;;;;;;5087470;28;25094;-67
2020/12/19 10:16:07;;;;;;;;;;;;;;;;;;5087517;28;25075;-65
2020/12/19 10:18:33;;;;;;;;;;;;;;;;;;5087509;28;25118;-65
2020/12/19 10:20:59;;;;;;;;;;;;;;;;;;5086887;28;25083;-65
2020/12/19 10:23:29;;;;;;;;;;;;;;;;;;5087585;28;20630;-66
2020/12/19 10:25:54;;;;;;;;;;;;;;;;;;5087470;28;20677;-68
2020/12/19 10:28:20;;;;;;;;;;;;;;;;;;5086877;28;25109;-65
2020/12/19 10:30:46;;;;;;;;;;;;;;;;;;5086992;28;20426;-68
2020/12/19 10:33:12;;;;;;;;;;;;;;;;;;5087091;28;25078;-69
2020/12/19 10:35:38;;;;;;;;;;;;;;;;;;5085841;28;25064;-66
2020/12/19 10:38:04;;;;;;;;;;;;;;;;;;5087411;28;25104;-66
2020/12/19 10:40:30;;;;;;;;;;;;;;;;;;5087081;28;25153;-66
2020/12/19 10:42:56;;;;;;;;;;;;;;;;;;5086983;28;20301;-65
2020/12/19 10:45:22;;;;;;;;;;;;;;;;;;5086776;28;25164;-65
2020/12/19 10:47:48;;;;;;;;;;;;;;;;;;5085122;28;20193;-65
2020/12/19 10:50:17;;;;;;;;;;;;;;;;;;5086453;28;20220;-66
2020/12/19 10:52:43;;;;;;;;;;;;;;;;;;5085117;28;20320;-66
2020/12/19 10:55:09;;;;;;;;;;;;;;;;;;5085128;28;25096;-66
2020/12/19 10:57:35;;;;;;;;;;;;;;;;;;5085446;28;25069;-67
2020/12/19 11:00:03;;;;;;;;;;;;;;;;;;5085028;28;25088;-66
2020/12/19 11:02:28;;;;;;;;;;;;;;;;;;5084607;28;25082;-66
2020/12/19 11:04:54;;;;;;;;;;;;;;;;;;5084933;28;25085;-66
2020/12/19 11:07:21;;;;;;;;;;;;;;;;;;5086493;28;25112;-66
2020/12/19 11:09:46;;;;;;;;;;;;;;;;;;5086654;28;25116;-67
2020/12/19 11:12:12;;;;;;;;;;;;;;;;;;5085276;28;20704;-67
2020/12/19 11:14:38;;;;;;;;;;;;;;;;;;5087231;28;25144;-65
2020/12/19 11:17:04;;;;;;;;;;;;;;;;;;5085870;28;25069;-66
2020/12/19 11:19:30;;;;;;;;;;;;;;;;;;5087095;28;25067;-66
2020/12/19 11:21:56;;;;;;;;;;;;;;;;;;5086999;28;25078;-66
2020/12/19 11:24:23;;;;;;;;;;;;;;;;;;5087150;28;25070;-66
2020/12/19 11:26:49;;;;;;;;;;;;;;;;;;5085786;28;25115;-66
2020/12/19 11:29:15;;;;;;;;;;;;;;;;;;5085955;28;25068;-65
2020/12/19 11:31:42;;;;;;;;;;;;;;;;;;5087097;28;25110;-65
2020/12/19 11:34:08;;;;;;;;;;;;;;;;;;5086830;28;25063;-68
2020/12/19 11:36:35;;;;;;;;;;;;;;;;;;5087335;28;25050;-66
2020/12/19 11:39:01;;;;;;;;;;;;;;;;;;5086290;28;20283;-67
2020/12/19 11:41:27;;;;;;;;;;;;;;;;;;5087134;28;25110;-66
2020/12/19 11:43:53;;;;;;;;;;;;;;;;;;5087311;28;25075;-67
2020/12/19 11:46:19;;;;;;;;;;;;;;;;;;5087702;28;20277;-67
2020/12/19 11:48:45;;;;;;;;;;;;;;;;;;5087420;28;25147;-66
2020/12/19 11:51:11;;;;;;;;;;;;;;;;;;5086486;28;25131;-66
2020/12/19 11:53:37;;;;;;;;;;;;;;;;;;5087800;28;25155;-67
2020/12/19 11:56:03;;;;;;;;;;;;;;;;;;5086301;28;25133;-67
2020/12/19 11:58:29;;;;;;;;;;;;;;;;;;5087927;28;25209;-65
2020/12/19 12:00:55;;;;;;;;;;;;;;;;;;5086203;28;20418;-66
2020/12/19 12:03:21;;;;;;;;;;;;;;;;;;5085599;28;25069;-67
2020/12/19 12:05:47;;;;;;;;;;;;;;;;;;5087177;28;20476;-66
2020/12/19 12:08:13;;;;;;;;;;;;;;;;;;5086793;28;25083;-66
2020/12/19 12:10:39;;;;;;;;;;;;;;;;;;5088713;28;25191;-66
2020/12/19 12:13:05;;;;;;;;;;;;;;;;;;5094010;28;25064;-67
2020/12/19 12:15:31;;;;;;;;;;;;;;;;;;5093236;28;25202;-66
2020/12/19 12:17:57;;;;;;;;;;;;;;;;;;5091266;28;25112;-66
2020/12/19 12:20:22;;;;;;;;;;;;;;;;;;5091189;28;25174;-65
2020/12/19 12:22:48;;;;;;;;;;;;;;;;;;5090710;28;25063;-66
2020/12/19 12:25:14;;;;;;;;;;;;;;;;;;5091017;28;25131;-67
2020/12/19 12:27:40;;;;;;;;;;;;;;;;;;5090763;28;25160;-66
2020/12/19 12:30:06;;;;;;;;;;;;;;;;;;5090745;28;25069;-66
2020/12/19 12:32:32;;;;;;;;;;;;;;;;;;5089267;28;20304;-66
2020/12/19 12:34:58;;;;;;;;;;;;;;;;;;5089043;28;25082;-66
2020/12/19 12:37:24;;;;;;;;;;;;;;;;;;5091150;28;20390;-66
2020/12/19 12:39:50;;;;;;;;;;;;;;;;;;5089288;28;25077;-67
2020/12/19 12:42:16;;;;;;;;;;;;;;;;;;5090851;28;25109;-67
2020/12/19 12:44:42;;;;;;;;;;;;;;;;;;5090706;28;25101;-66
2020/12/19 12:47:08;;;;;;;;;;;;;;;;;;5090845;28;25182;-66
2020/12/19 12:49:34;;;;;;;;;;;;;;;;;;5090971;28;21028;-66
2020/12/19 12:52:00;;;;;;;;;;;;;;;;;;5091023;28;25093;-66
2020/12/19 12:54:26;;;;;;;;;;;;;;;;;;5090192;28;20311;-66
2020/12/19 12:56:51;;;;;;;;;;;;;;;;;;5091282;28;20358;-66
2020/12/19 12:59:17;;;;;;;;;;;;;;;;;;5129493;22;20430;-71
2020/12/19 13:01:43;;;;;;;;;;;;;;;;;;5031029;28;20768;-72
2020/12/19 13:04:09;;;;;;;;;;;;;;;;;;5029386;28;20396;-71
2020/12/19 13:06:35;;;;;;;;;;;;;;;;;;5031904;28;20392;-71
2020/12/19 13:09:01;;;;;;;;;;;;;;;;;;5030736;28;25143;-71
2020/12/19 13:11:27;;;;;;;;;;;;;;;;;;5029272;28;20497;-70
2020/12/19 13:13:53;;;;;;;;;;;;;;;;;;5030268;28;25113;-69
2020/12/19 13:16:19;;;;;;;;;;;;;;;;;;5030252;28;20385;-70
2020/12/19 13:18:45;;;;;;;;;;;;;;;;;;5030982;28;20933;-69
2020/12/19 13:21:11;;;;;;;;;;;;;;;;;;5030662;28;20759;-69
2020/12/19 13:23:37;;;;;;;;;;;;;;;;;;5029716;28;20408;-69
2020/12/19 13:26:03;;;;;;;;;;;;;;;;;;5031001;28;20729;-69
2020/12/19 13:28:30;;;;;;;;;;;;;;;;;;5029408;28;20893;-69
2020/12/19 13:30:56;;;;;;;;;;;;;;;;;;5030958;28;20373;-70
2020/12/19 13:33:22;;;;;;;;;;;;;;;;;;5030556;28;20449;-69
2020/12/19 13:35:48;;;;;;;;;;;;;;;;;;5030516;28;25119;-69
2020/12/19 13:38:14;;;;;;;;;;;;;;;;;;5030197;28;20369;-69
2020/12/19 13:40:40;;;;;;;;;;;;;;;;;;5030464;28;20727;-69
2020/12/19 13:43:05;;;;;;;;;;;;;;;;;;5030119;28;25216;-69
2020/12/19 13:45:31;;;;;;;;;;;;;;;;;;5030393;28;20393;-69
2020/12/19 13:47:57;;;;;;;;;;;;;;;;;;5030531;28;20892;-70
2020/12/19 13:50:23;;;;;;;;;;;;;;;;;;5030461;28;20495;-69
2020/12/19 13:52:49;;;;;;;;;;;;;;;;;;5030709;28;20427;-69
2020/12/19 13:55:15;;;;;;;;;;;;;;;;;;5030578;28;25171;-69
2020/12/19 13:57:41;;;;;;;;;;;;;;;;;;5030149;28;25103;-69
2020/12/19 14:00:07;;;;;;;;;;;;;;;;;;5030150;28;20411;-69
2020/12/19 14:02:33;;;;;;;;;;;;;;;;;;5031061;28;20400;-68
2020/12/19 14:04:59;;;;;;;;;;;;;;;;;;5030473;28;20478;-69
2020/12/19 14:07:25;;;;;;;;;;;;;;;;;;5030077;28;20408;-70
2020/12/19 14:09:51;;;;;;;;;;;;;;;;;;5029940;28;25121;-70
2020/12/19 14:12:17;;;;;;;;;;;;;;;;;;5029868;28;25131;-70
2020/12/19 14:14:43;;;;;;;;;;;;;;;;;;5029857;28;25135;-69
2020/12/19 14:17:09;;;;;;;;;;;;;;;;;;5029840;28;25108;-69
2020/12/19 14:19:35;;;;;;;;;;;;;;;;;;5030476;28;20227;-70
2020/12/19 14:22:01;;;;;;;;;;;;;;;;;;5030758;28;20421;-69
2020/12/19 14:24:27;;;;;;;;;;;;;;;;;;5029400;28;20385;-69
2020/12/19 14:26:52;;;;;;;;;;;;;;;;;;5028709;28;20416;-69
2020/12/19 14:29:18;;;;;;;;;;;;;;;;;;5028334;28;20394;-69
2020/12/19 14:31:44;;;;;;;;;;;;;;;;;;5028571;28;25086;-67
2020/12/19 14:34:10;;;;;;;;;;;;;;;;;;5028596;28;25070;-70
2020/12/19 14:36:36;;;;;;;;;;;;;;;;;;5030039;28;20390;-70
2020/12/19 14:39:02;;;;;;;;;;;;;;;;;;5029180;28;20863;-69
2020/12/19 14:41:28;;;;;;;;;;;;;;;;;;5030047;28;20407;-69
2020/12/19 14:43:54;;;;;;;;;;;;;;;;;;5027755;28;20700;-70
2020/12/19 14:46:20;;;;;;;;;;;;;;;;;;5028209;28;20458;-69
2020/12/19 14:48:46;;;;;;;;;;;;;;;;;;5029508;28;20399;-70
2020/12/19 14:51:12;;;;;;;;;;;;;;;;;;5030436;28;20376;-70
2020/12/19 14:53:38;;;;;;;;;;;;;;;;;;5028801;28;20413;-69
2020/12/19 14:56:04;;;;;;;;;;;;;;;;;;5029632;28;20392;-69
2020/12/19 14:58:30;;;;;;;;;;;;;;;;;;5030178;28;20495;-69
2020/12/19 15:00:56;;;;;;;;;;;;;;;;;;5028377;28;25070;-69
2020/12/19 15:03:23;;;;;;;;;;;;;;;;;;5029493;28;20435;-69
2020/12/19 15:05:49;;;;;;;;;;;;;;;;;;5027735;28;25156;-69
2020/12/19 15:08:15;;;;;;;;;;;;;;;;;;5028579;28;20528;-69
2020/12/19 15:10:41;;;;;;;;;;;;;;;;;;5029738;28;20419;-69
2020/12/19 15:13:07;;;;;;;;;;;;;;;;;;5029957;28;20401;-69
2020/12/19 15:15:33;;;;;;;;;;;;;;;;;;5029653;28;25106;-69
2020/12/19 15:18:00;;;;;;;403.90;217.30;;;;;;;;;;5029781;28;20862;-68
2020/12/19 15:20:26;;;;;;;;;;;;;;;;;;5030225;28;20393;-70
2020/12/19 15:22:52;;;;;;;;;;;;;;;;;;5029912;28;25124;-70
2020/12/19 15:25:18;;;;;;;;;;;;;;;;;;5029983;28;20874;-70
2020/12/19 15:27:44;;;;;;;;;;;;;;;;;;5029565;28;20907;-71
2020/12/19 15:30:11;;;;;;;;;;;;;;;;;;5028185;28;20873;-71
2020/12/19 15:32:37;;;;;;;;;;;;;;;;;;5027992;28;25129;-71
2020/12/19 15:35:03;;;;;;;;;;;;;;;;;;5029367;28;20419;-71
2020/12/19 15:37:29;;;;;;;;;;;;;;;;;;5029202;28;20431;-70
2020/12/19 15:39:55;;;;;;;;;;;;;;;;;;5028889;28;20735;-70
2020/12/19 15:42:21;;;;;;;;;;;;;;;;;;5029875;28;20376;-70
2020/12/19 15:44:47;;;;;;;;;;;;;;;;;;5032217;28;20423;-70
2020/12/19 15:47:13;;;;;;;;;;;;;;;;;;5032627;28;20434;-71
2020/12/19 15:49:38;;;;;;;;;;;;;;;;;;5033665;28;20854;-71
2020/12/19 15:52:04;;;;;;;;;;;;;;;;;;5031854;28;20384;-71
2020/12/19 15:54:30;;;;;;;;;;;;;;;;;;5033175;28;20371;-70
2020/12/19 15:56:56;;;;;;;;;;;;;;;;;;5033023;28;25121;-71
2020/12/19 15:59:22;;;;;;;;;;;;;;;;;;5033402;28;20375;-70
2020/12/19 16:01:48;;;;;;;;;;;;;;;;;;5031881;28;21041;-70
2020/12/19 16:04:14;;;;;;;;;;;;;;;;;;5033170;28;20501;-71
2020/12/19 16:06:40;;;;;;;406.30;221.40;;;;;;;;;;5031944;28;25185;-70
2020/12/19 16:09:06;;;;;;;;;;;;;;;;;;5032947;28;25150;-70
2020/12/19 16:11:32;;;;;;;;;;;;;;;;;;5033187;28;20514;-70
2020/12/19 16:13:58;;;;;;;;;;;;;;;;;;5033086;28;20386;-70
2020/12/19 16:16:24;;;;;;;;;;;;;;;;;;5033009;28;25097;-71
2020/12/19 16:18:50;;;;;;;;;;;;;;;;;;5031770;28;20443;-71
2020/12/19 16:21:16;;;;;;;;;;;;;;;;;;5031723;28;20413;-70
2020/12/19 16:23:43;;;;;;;;;;;;;;;;;;5033133;28;20421;-70
2020/12/19 16:26:08;;;;;;;;;;;;;;;;;;5033053;28;20453;-70
2020/12/19 16:28:35;;;;;;;;;;;;;;;;;;5033011;28;20484;-70
2020/12/19 16:31:01;;;;;;;;;;;;;;;;;;5031625;28;20456;-70
2020/12/19 16:33:27;;;;;;;401.00;211.10;;;;;;;;;;5031476;28;20837;-70